AVA8532 SKBO-SKMR
Flight info
| Callsign | AVA8532 |
|---|---|
| Flight time | N/A |
| Altitude | 34000 |
| Route | OSUSU4R GIKPU UQ120 PADUD DCT XOGEN XOGEN2A |
| Aircraft | A320/M-SDE3FGHIRWY/LB1 |
Departure
| Time | 2026-05-03 21:55 |
|---|---|
| Airport | El Dorado International Airport (SKBO) |
Arrival
| Time | N/A |
|---|---|
| Airport | Los Garzones Airport (SKMR) |
| Time | Latitude | Longitude | Altitude | Speed | Heading |
|---|---|---|---|---|---|
| 2026-05-03 21:19 | 4.69817 | -74.14583 | 8365 ft | 0 kts | 67° |
| 2026-05-03 21:35 | 4.69812 | -74.14594 | 8365 ft | 3 kts | 66° |
| 2026-05-03 21:35 | 4.69804 | -74.14612 | 8365 ft | 3 kts | 63° |
| 2026-05-03 21:36 | 4.69797 | -74.14623 | 8365 ft | 1 kts | 37° |
| 2026-05-03 21:36 | 4.69790 | -74.14627 | 8364 ft | 1 kts | 344° |
| 2026-05-03 21:36 | 4.69782 | -74.14624 | 8365 ft | 1 kts | 324° |
| 2026-05-03 21:36 | 4.69776 | -74.14619 | 8365 ft | 1 kts | 319° |
| 2026-05-03 21:37 | 4.69771 | -74.14614 | 8365 ft | 0 kts | 317° |
| 2026-05-03 21:42 | 4.69771 | -74.14615 | 8364 ft | 1 kts | 317° |
| 2026-05-03 21:42 | 4.69785 | -74.14633 | 8364 ft | 6 kts | 307° |
| 2026-05-03 21:42 | 4.69822 | -74.14680 | 8364 ft | 11 kts | 308° |
| 2026-05-03 21:43 | 4.69871 | -74.14749 | 8365 ft | 13 kts | 302° |
| 2026-05-03 21:43 | 4.69866 | -74.14833 | 8365 ft | 13 kts | 257° |
| 2026-05-03 21:43 | 4.69900 | -74.14907 | 8365 ft | 12 kts | 307° |
| 2026-05-03 21:43 | 4.69955 | -74.14979 | 8365 ft | 13 kts | 307° |
| 2026-05-03 21:44 | 4.70013 | -74.15055 | 8365 ft | 14 kts | 307° |
| 2026-05-03 21:44 | 4.70076 | -74.15138 | 8365 ft | 15 kts | 307° |
| 2026-05-03 21:44 | 4.70142 | -74.15226 | 8365 ft | 16 kts | 307° |
| 2026-05-03 21:44 | 4.70209 | -74.15318 | 8364 ft | 17 kts | 306° |
| 2026-05-03 21:45 | 4.70284 | -74.15411 | 8365 ft | 18 kts | 311° |
| 2026-05-03 21:45 | 4.70363 | -74.15507 | 8365 ft | 18 kts | 306° |
| 2026-05-03 21:45 | 4.70440 | -74.15610 | 8364 ft | 19 kts | 309° |
| 2026-05-03 21:45 | 4.70522 | -74.15713 | 8365 ft | 19 kts | 308° |
| 2026-05-03 21:46 | 4.70580 | -74.15826 | 8365 ft | 18 kts | 264° |
| 2026-05-03 21:46 | 4.70586 | -74.15942 | 8364 ft | 17 kts | 303° |
| 2026-05-03 21:46 | 4.70656 | -74.16037 | 8365 ft | 17 kts | 307° |
| 2026-05-03 21:46 | 4.70730 | -74.16135 | 8365 ft | 18 kts | 308° |
| 2026-05-03 21:47 | 4.70804 | -74.16234 | 8365 ft | 18 kts | 307° |
| 2026-05-03 21:47 | 4.70883 | -74.16338 | 8365 ft | 19 kts | 307° |
| 2026-05-03 21:47 | 4.70963 | -74.16444 | 8365 ft | 19 kts | 308° |
| 2026-05-03 21:47 | 4.71047 | -74.16553 | 8364 ft | 20 kts | 307° |
| 2026-05-03 21:48 | 4.71131 | -74.16665 | 8365 ft | 20 kts | 307° |
| 2026-05-03 21:48 | 4.71214 | -74.16775 | 8365 ft | 18 kts | 308° |
| 2026-05-03 21:48 | 4.71234 | -74.16866 | 8365 ft | 9 kts | 233° |
| 2026-05-03 21:48 | 4.71222 | -74.16874 | 8365 ft | 0 kts | 214° |
| 2026-05-03 21:49 | 4.71218 | -74.16877 | 8365 ft | 0 kts | 215° |
| 2026-05-03 21:53 | 4.71216 | -74.16878 | 8365 ft | 1 kts | 215° |
| 2026-05-03 21:53 | 4.71189 | -74.16895 | 8364 ft | 8 kts | 204° |
| 2026-05-03 21:53 | 4.71105 | -74.16890 | 8364 ft | 16 kts | 173° |
| 2026-05-03 21:53 | 4.71015 | -74.16875 | 8364 ft | 12 kts | 135° |
| 2026-05-03 21:54 | 4.71011 | -74.16869 | 8364 ft | 4 kts | 128° |
| 2026-05-03 21:54 | 4.70894 | -74.16716 | 8364 ft | 59 kts | 128° |
| 2026-05-03 21:54 | 4.70509 | -74.16205 | 8366 ft | 124 kts | 127° |
| 2026-05-03 21:54 | 4.69860 | -74.15348 | 8367 ft | 182 kts | 127° |
| 2026-05-03 21:55 | 4.69063 | -74.14266 | 8909 ft | 196 kts | 128° |
| 2026-05-03 21:55 | 4.68263 | -74.13180 | 9700 ft | 188 kts | 127° |
| 2026-05-03 21:55 | 4.67490 | -74.12165 | 10484 ft | 185 kts | 127° |
| 2026-05-03 21:55 | 4.66666 | -74.11091 | 10803 ft | 205 kts | 127° |
| 2026-05-03 21:56 | 4.65769 | -74.09913 | 11106 ft | 226 kts | 127° |
| 2026-05-03 21:56 | 4.64766 | -74.08585 | 11323 ft | 252 kts | 126° |
| 2026-05-03 21:56 | 4.63663 | -74.07118 | 11651 ft | 275 kts | 126° |
| 2026-05-03 21:56 | 4.62471 | -74.05531 | 12046 ft | 293 kts | 126° |
| 2026-05-03 21:57 | 4.61235 | -74.03885 | 12746 ft | 296 kts | 126° |
| 2026-05-03 21:57 | 4.59995 | -74.02233 | 13485 ft | 299 kts | 126° |
| 2026-05-03 21:57 | 4.58741 | -74.00561 | 14268 ft | 301 kts | 126° |
| 2026-05-03 21:57 | 4.57477 | -73.98877 | 14954 ft | 305 kts | 126° |
| 2026-05-03 21:58 | 4.56193 | -73.97170 | 15630 ft | 309 kts | 125° |
| 2026-05-03 21:58 | 4.54892 | -73.95440 | 16330 ft | 312 kts | 125° |
| 2026-05-03 21:58 | 4.53601 | -73.93723 | 17010 ft | 315 kts | 125° |
| 2026-05-03 21:58 | 4.52274 | -73.91960 | 17695 ft | 318 kts | 125° |
| 2026-05-03 21:59 | 4.50940 | -73.90184 | 18361 ft | 320 kts | 124° |
| 2026-05-03 21:59 | 4.49879 | -73.88216 | 18758 ft | 327 kts | 108° |
| 2026-05-03 21:59 | 4.49472 | -73.85934 | 18873 ft | 343 kts | 89° |
| 2026-05-03 21:59 | 4.49908 | -73.83534 | 18999 ft | 361 kts | 70° |
| 2026-05-03 22:00 | 4.51173 | -73.81307 | 19146 ft | 377 kts | 52° |
| 2026-05-03 22:00 | 4.53140 | -73.79522 | 19511 ft | 388 kts | 35° |
| 2026-05-03 22:00 | 4.55599 | -73.78374 | 20014 ft | 395 kts | 19° |
| 2026-05-03 22:00 | 4.58296 | -73.77958 | 20482 ft | 403 kts | 2° |
| 2026-05-03 22:01 | 4.61100 | -73.78205 | 20993 ft | 408 kts | 354° |
| 2026-05-03 22:01 | 4.63927 | -73.78592 | 21482 ft | 411 kts | 356° |
| 2026-05-03 22:01 | 4.66786 | -73.78840 | 21988 ft | 413 kts | 359° |
| 2026-05-03 22:01 | 4.69667 | -73.78933 | 22497 ft | 415 kts | 2° |
| 2026-05-03 22:02 | 4.72564 | -73.78926 | 22974 ft | 418 kts | 3° |
| 2026-05-03 22:02 | 4.75483 | -73.78869 | 23419 ft | 421 kts | 4° |
| 2026-05-03 22:02 | 4.78385 | -73.78796 | 23857 ft | 424 kts | 4° |
| 2026-05-03 22:02 | 4.81343 | -73.78716 | 24248 ft | 427 kts | 4° |
| 2026-05-03 22:03 | 4.84314 | -73.78638 | 24633 ft | 429 kts | 3° |
| 2026-05-03 22:03 | 4.87315 | -73.78561 | 25021 ft | 432 kts | 3° |
| 2026-05-03 22:03 | 4.90326 | -73.78486 | 25380 ft | 434 kts | 3° |
| 2026-05-03 22:03 | 4.93353 | -73.78410 | 25745 ft | 436 kts | 3° |
| 2026-05-03 22:04 | 4.96399 | -73.78335 | 26088 ft | 439 kts | 3° |
| 2026-05-03 22:04 | 4.99463 | -73.78260 | 26426 ft | 442 kts | 3° |
| 2026-05-03 22:04 | 5.02541 | -73.78184 | 26776 ft | 444 kts | 3° |
| 2026-05-03 22:04 | 5.05633 | -73.78108 | 27108 ft | 446 kts | 3° |
| 2026-05-03 22:05 | 5.08707 | -73.78033 | 27432 ft | 449 kts | 3° |
| 2026-05-03 22:05 | 5.11831 | -73.77956 | 27772 ft | 450 kts | 3° |
| 2026-05-03 22:05 | 5.14977 | -73.77879 | 28090 ft | 453 kts | 3° |
| 2026-05-03 22:05 | 5.18134 | -73.77800 | 28416 ft | 455 kts | 3° |
| 2026-05-03 22:06 | 5.21305 | -73.77721 | 28733 ft | 457 kts | 3° |
| 2026-05-03 22:06 | 5.24496 | -73.77643 | 29031 ft | 460 kts | 3° |
| 2026-05-03 22:06 | 5.27700 | -73.77564 | 29337 ft | 462 kts | 3° |
| 2026-05-03 22:06 | 5.30921 | -73.77485 | 29615 ft | 464 kts | 3° |
| 2026-05-03 22:07 | 5.34156 | -73.77406 | 29911 ft | 466 kts | 3° |
| 2026-05-03 22:07 | 5.37363 | -73.77326 | 30180 ft | 468 kts | 3° |
| 2026-05-03 22:07 | 5.40621 | -73.77246 | 30458 ft | 470 kts | 3° |
| 2026-05-03 22:07 | 5.43894 | -73.77165 | 30723 ft | 471 kts | 3° |
| 2026-05-03 22:08 | 5.47179 | -73.77084 | 30985 ft | 473 kts | 3° |
| 2026-05-03 22:08 | 5.50475 | -73.77003 | 31280 ft | 474 kts | 2° |
| 2026-05-03 22:08 | 5.53768 | -73.76922 | 31621 ft | 473 kts | 2° |
| 2026-05-03 22:08 | 5.57054 | -73.76842 | 31994 ft | 472 kts | 2° |
| 2026-05-03 22:09 | 5.60335 | -73.76762 | 32351 ft | 471 kts | 2° |
| 2026-05-03 22:09 | 5.63614 | -73.76681 | 32684 ft | 471 kts | 2° |
| 2026-05-03 22:09 | 5.66883 | -73.76601 | 33009 ft | 470 kts | 2° |
| 2026-05-03 22:10 | 5.73410 | -73.76440 | 33678 ft | 468 kts | 2° |
| 2026-05-03 22:10 | 5.76626 | -73.76361 | 33952 ft | 468 kts | 2° |
| 2026-05-03 22:10 | 5.79876 | -73.76281 | 34014 ft | 466 kts | 2° |
| 2026-05-03 22:11 | 5.86359 | -73.76122 | 34008 ft | 466 kts | 2° |
| 2026-05-03 22:11 | 5.92842 | -73.75962 | 33996 ft | 466 kts | 2° |
| 2026-05-03 22:12 | 5.99323 | -73.75803 | 33988 ft | 466 kts | 2° |
| 2026-05-03 22:12 | 6.05708 | -73.75061 | 33976 ft | 465 kts | 13° |
| 2026-05-03 22:13 | 6.12046 | -73.73738 | 33967 ft | 465 kts | 12° |
| 2026-05-03 22:13 | 6.18388 | -73.72435 | 33954 ft | 465 kts | 12° |
| 2026-05-03 22:14 | 6.24731 | -73.71131 | 33949 ft | 465 kts | 12° |
| 2026-05-03 22:14 | 6.31031 | -73.69832 | 33941 ft | 465 kts | 12° |
| 2026-05-03 22:15 | 6.37417 | -73.68515 | 33928 ft | 465 kts | 12° |
| 2026-05-03 22:15 | 6.43719 | -73.67216 | 33923 ft | 466 kts | 12° |
| 2026-05-03 22:16 | 6.50064 | -73.65908 | 33919 ft | 465 kts | 12° |
| 2026-05-03 22:16 | 6.55342 | -73.64820 | 33913 ft | 465 kts | 12° |
| 2026-05-03 22:17 | 6.61684 | -73.63512 | 33904 ft | 465 kts | 12° |
| 2026-05-03 22:17 | 6.68027 | -73.62204 | 33894 ft | 465 kts | 12° |
| 2026-05-03 22:18 | 6.74367 | -73.60895 | 33884 ft | 465 kts | 12° |
| 2026-05-03 22:18 | 6.81738 | -73.59374 | 33864 ft | 465 kts | 12° |
| 2026-05-03 22:19 | 6.87049 | -73.58277 | 33853 ft | 465 kts | 12° |
| 2026-05-03 22:19 | 6.93438 | -73.57839 | 33835 ft | 466 kts | 353° |
| 2026-05-03 22:19 | 6.96607 | -73.58517 | 33825 ft | 467 kts | 342° |
| 2026-05-03 22:20 | 6.99638 | -73.59803 | 33815 ft | 467 kts | 331° |
| 2026-05-03 22:20 | 7.04636 | -73.63872 | 33805 ft | 468 kts | 311° |
| 2026-05-03 22:21 | 7.08917 | -73.68813 | 33799 ft | 469 kts | 311° |
| 2026-05-03 22:21 | 7.13211 | -73.73751 | 33802 ft | 469 kts | 311° |
| 2026-05-03 22:22 | 7.17513 | -73.78696 | 33811 ft | 469 kts | 311° |
| 2026-05-03 22:22 | 7.21788 | -73.83614 | 33816 ft | 470 kts | 311° |
| 2026-05-03 22:23 | 7.26090 | -73.88562 | 33827 ft | 470 kts | 311° |
| 2026-05-03 22:23 | 7.30404 | -73.93528 | 33844 ft | 471 kts | 311° |
| 2026-05-03 22:24 | 7.34718 | -73.98495 | 33863 ft | 471 kts | 311° |
| 2026-05-03 22:24 | 7.39017 | -74.03447 | 33863 ft | 468 kts | 311° |
| 2026-05-03 22:25 | 7.43301 | -74.08381 | 33869 ft | 468 kts | 311° |
| 2026-05-03 22:25 | 7.47546 | -74.13273 | 33875 ft | 466 kts | 311° |
| 2026-05-03 22:26 | 7.51815 | -74.18195 | 33881 ft | 466 kts | 311° |
| 2026-05-03 22:26 | 7.56074 | -74.23106 | 33888 ft | 465 kts | 311° |
| 2026-05-03 22:27 | 7.60321 | -74.28006 | 33890 ft | 464 kts | 311° |
| 2026-05-03 22:27 | 7.64564 | -74.32901 | 33886 ft | 463 kts | 311° |
| 2026-05-03 22:28 | 7.68769 | -74.37756 | 33760 ft | 464 kts | 311° |
| 2026-05-03 22:28 | 7.70894 | -74.40209 | 33272 ft | 465 kts | 311° |
| 2026-05-03 22:28 | 7.73027 | -74.42671 | 32453 ft | 469 kts | 311° |
| 2026-05-03 22:28 | 7.75188 | -74.45168 | 31350 ft | 477 kts | 311° |
| 2026-05-03 22:29 | 7.77390 | -74.47710 | 30332 ft | 484 kts | 311° |
| 2026-05-03 22:29 | 7.79580 | -74.50284 | 29642 ft | 481 kts | 308° |
| 2026-05-03 22:29 | 7.81574 | -74.52949 | 29166 ft | 471 kts | 307° |
| 2026-05-03 22:29 | 7.83528 | -74.55570 | 28582 ft | 465 kts | 307° |
| 2026-05-03 22:30 | 7.85467 | -74.58161 | 27969 ft | 460 kts | 307° |
| 2026-05-03 22:30 | 7.87385 | -74.60725 | 27350 ft | 456 kts | 307° |
| 2026-05-03 22:30 | 7.89262 | -74.63234 | 26752 ft | 452 kts | 307° |
| 2026-05-03 22:30 | 7.91150 | -74.65759 | 26169 ft | 448 kts | 307° |
| 2026-05-03 22:31 | 7.92412 | -74.67448 | 25730 ft | 447 kts | 307° |